sensor_id;sensor_type;location;lat;lon;timestamp;P1;durP1;ratioP1;P2;durP2;ratioP2
29720;SDS011;23665;51.044;3.748;2022-08-27T00:00:14;10.77;;;4.03;;
29720;SDS011;23665;51.044;3.748;2022-08-27T00:02:42;11.88;;;4.35;;
29720;SDS011;23665;51.044;3.748;2022-08-27T00:05:12;12.50;;;5.03;;
29720;SDS011;23665;51.044;3.748;2022-08-27T00:07:40;14.10;;;5.30;;
29720;SDS011;23665;51.044;3.748;2022-08-27T00:10:07;11.75;;;4.80;;
29720;SDS011;23665;51.044;3.748;2022-08-27T00:12:35;10.37;;;4.43;;
29720;SDS011;23665;51.044;3.748;2022-08-27T00:15:02;11.60;;;4.00;;
29720;SDS011;23665;51.044;3.748;2022-08-27T00:17:30;13.40;;;4.47;;
29720;SDS011;23665;51.044;3.748;2022-08-27T00:19:56;15.83;;;5.10;;
29720;SDS011;23665;51.044;3.748;2022-08-27T00:22:22;12.63;;;4.70;;
29720;SDS011;23665;51.044;3.748;2022-08-27T00:24:48;8.67;;;4.37;;
29720;SDS011;23665;51.044;3.748;2022-08-27T00:27:13;10.30;;;4.17;;
29720;SDS011;23665;51.044;3.748;2022-08-27T00:29:39;15.30;;;4.40;;
29720;SDS011;23665;51.044;3.748;2022-08-27T00:32:05;15.17;;;4.80;;
29720;SDS011;23665;51.044;3.748;2022-08-27T00:34:32;11.70;;;4.83;;
29720;SDS011;23665;51.044;3.748;2022-08-27T00:36:58;11.63;;;4.23;;
29720;SDS011;23665;51.044;3.748;2022-08-27T00:39:24;12.33;;;4.20;;
29720;SDS011;23665;51.044;3.748;2022-08-27T00:41:50;10.13;;;4.13;;
29720;SDS011;23665;51.044;3.748;2022-08-27T00:44:15;13.10;;;4.33;;
29720;SDS011;23665;51.044;3.748;2022-08-27T00:46:43;11.07;;;3.87;;
29720;SDS011;23665;51.044;3.748;2022-08-27T00:49:19;7.70;;;3.87;;
29720;SDS011;23665;51.044;3.748;2022-08-27T00:51:47;9.27;;;4.23;;
29720;SDS011;23665;51.044;3.748;2022-08-27T00:54:19;12.93;;;4.10;;
29720;SDS011;23665;51.044;3.748;2022-08-27T00:56:46;13.20;;;4.30;;
29720;SDS011;23665;51.044;3.748;2022-08-27T00:59:13;11.50;;;4.13;;
29720;SDS011;23665;51.044;3.748;2022-08-27T01:01:41;13.77;;;4.20;;
29720;SDS011;23665;51.044;3.748;2022-08-27T01:04:27;12.83;;;4.60;;
29720;SDS011;23665;51.044;3.748;2022-08-27T01:06:55;11.53;;;4.20;;
29720;SDS011;23665;51.044;3.748;2022-08-27T01:09:21;11.50;;;4.43;;
29720;SDS011;23665;51.044;3.748;2022-08-27T01:11:47;13.80;;;4.27;;
29720;SDS011;23665;51.044;3.748;2022-08-27T01:14:14;8.93;;;4.30;;
29720;SDS011;23665;51.044;3.748;2022-08-27T01:16:41;9.83;;;4.40;;
29720;SDS011;23665;51.044;3.748;2022-08-27T01:19:27;8.30;;;3.73;;
29720;SDS011;23665;51.044;3.748;2022-08-27T01:24:38;7.63;;;3.97;;
29720;SDS011;23665;51.044;3.748;2022-08-27T01:27:12;14.63;;;4.03;;
29720;SDS011;23665;51.044;3.748;2022-08-27T01:29:42;8.80;;;4.33;;
29720;SDS011;23665;51.044;3.748;2022-08-27T01:32:10;10.07;;;3.60;;
29720;SDS011;23665;51.044;3.748;2022-08-27T01:34:41;12.10;;;4.03;;
29720;SDS011;23665;51.044;3.748;2022-08-27T01:37:07;18.43;;;5.23;;
29720;SDS011;23665;51.044;3.748;2022-08-27T01:39:36;10.93;;;4.37;;
29720;SDS011;23665;51.044;3.748;2022-08-27T01:42:04;11.37;;;5.47;;
29720;SDS011;23665;51.044;3.748;2022-08-27T01:44:43;11.93;;;5.10;;
29720;SDS011;23665;51.044;3.748;2022-08-27T01:47:18;12.07;;;4.40;;
29720;SDS011;23665;51.044;3.748;2022-08-27T01:49:46;13.47;;;4.90;;
29720;SDS011;23665;51.044;3.748;2022-08-27T01:52:12;10.77;;;4.27;;
29720;SDS011;23665;51.044;3.748;2022-08-27T01:54:40;10.00;;;4.03;;
29720;SDS011;23665;51.044;3.748;2022-08-27T01:57:06;10.17;;;4.50;;
29720;SDS011;23665;51.044;3.748;2022-08-27T01:59:32;8.33;;;4.07;;
29720;SDS011;23665;51.044;3.748;2022-08-27T02:01:58;16.43;;;4.07;;
29720;SDS011;23665;51.044;3.748;2022-08-27T02:04:26;15.03;;;5.37;;
29720;SDS011;23665;51.044;3.748;2022-08-27T02:06:53;15.63;;;4.47;;
29720;SDS011;23665;51.044;3.748;2022-08-27T02:09:18;15.03;;;5.07;;
29720;SDS011;23665;51.044;3.748;2022-08-27T02:11:44;10.60;;;3.93;;
29720;SDS011;23665;51.044;3.748;2022-08-27T02:14:10;11.50;;;4.20;;
29720;SDS011;23665;51.044;3.748;2022-08-27T02:16:36;6.77;;;4.17;;
29720;SDS011;23665;51.044;3.748;2022-08-27T02:19:02;13.33;;;4.47;;
29720;SDS011;23665;51.044;3.748;2022-08-27T02:21:29;12.73;;;4.70;;
29720;SDS011;23665;51.044;3.748;2022-08-27T02:23:55;9.13;;;3.77;;
29720;SDS011;23665;51.044;3.748;2022-08-27T02:26:21;13.13;;;4.23;;
29720;SDS011;23665;51.044;3.748;2022-08-27T02:28:47;8.83;;;4.50;;
29720;SDS011;23665;51.044;3.748;2022-08-27T02:31:13;8.70;;;4.30;;
29720;SDS011;23665;51.044;3.748;2022-08-27T02:33:39;13.23;;;4.90;;
29720;SDS011;23665;51.044;3.748;2022-08-27T02:36:05;14.23;;;4.83;;
29720;SDS011;23665;51.044;3.748;2022-08-27T02:38:30;16.37;;;5.70;;
29720;SDS011;23665;51.044;3.748;2022-08-27T02:40:56;13.83;;;5.33;;
29720;SDS011;23665;51.044;3.748;2022-08-27T02:43:22;14.03;;;5.17;;
29720;SDS011;23665;51.044;3.748;2022-08-27T02:45:47;9.13;;;4.17;;
29720;SDS011;23665;51.044;3.748;2022-08-27T02:48:14;10.50;;;4.33;;
29720;SDS011;23665;51.044;3.748;2022-08-27T02:50:40;9.13;;;4.20;;
29720;SDS011;23665;51.044;3.748;2022-08-27T02:53:07;9.93;;;4.10;;
29720;SDS011;23665;51.044;3.748;2022-08-27T02:55:34;11.90;;;4.47;;
29720;SDS011;23665;51.044;3.748;2022-08-27T02:58:00;8.67;;;3.83;;
29720;SDS011;23665;51.044;3.748;2022-08-27T03:00:27;14.70;;;5.23;;
29720;SDS011;23665;51.044;3.748;2022-08-27T03:02:53;13.57;;;5.47;;
29720;SDS011;23665;51.044;3.748;2022-08-27T03:05:20;12.53;;;4.80;;
29720;SDS011;23665;51.044;3.748;2022-08-27T03:07:46;11.87;;;4.80;;
29720;SDS011;23665;51.044;3.748;2022-08-27T03:10:14;11.47;;;4.00;;
29720;SDS011;23665;51.044;3.748;2022-08-27T03:12:41;10.77;;;4.17;;
29720;SDS011;23665;51.044;3.748;2022-08-27T03:15:09;15.27;;;4.63;;
29720;SDS011;23665;51.044;3.748;2022-08-27T03:17:38;13.37;;;4.53;;
29720;SDS011;23665;51.044;3.748;2022-08-27T03:20:23;15.03;;;4.17;;
29720;SDS011;23665;51.044;3.748;2022-08-27T03:22:49;10.17;;;4.87;;
29720;SDS011;23665;51.044;3.748;2022-08-27T03:25:15;14.87;;;4.73;;
29720;SDS011;23665;51.044;3.748;2022-08-27T03:27:41;12.03;;;5.03;;
29720;SDS011;23665;51.044;3.748;2022-08-27T03:30:11;11.27;;;4.37;;
29720;SDS011;23665;51.044;3.748;2022-08-27T03:32:40;12.87;;;4.50;;
29720;SDS011;23665;51.044;3.748;2022-08-27T03:35:06;9.07;;;4.10;;
29720;SDS011;23665;51.044;3.748;2022-08-27T03:37:33;11.10;;;4.90;;
29720;SDS011;23665;51.044;3.748;2022-08-27T03:39:59;11.90;;;5.27;;
29720;SDS011;23665;51.044;3.748;2022-08-27T03:42:25;9.43;;;4.40;;
29720;SDS011;23665;51.044;3.748;2022-08-27T03:44:51;15.20;;;5.90;;
29720;SDS011;23665;51.044;3.748;2022-08-27T03:47:17;15.77;;;5.75;;
29720;SDS011;23665;51.044;3.748;2022-08-27T03:49:43;8.43;;;4.17;;
29720;SDS011;23665;51.044;3.748;2022-08-27T03:52:09;13.23;;;4.50;;
29720;SDS011;23665;51.044;3.748;2022-08-27T03:54:35;11.30;;;4.13;;
29720;SDS011;23665;51.044;3.748;2022-08-27T03:57:02;10.67;;;4.73;;
29720;SDS011;23665;51.044;3.748;2022-08-27T03:59:29;11.87;;;3.90;;
29720;SDS011;23665;51.044;3.748;2022-08-27T04:01:55;10.50;;;4.97;;
29720;SDS011;23665;51.044;3.748;2022-08-27T04:04:20;12.30;;;5.13;;
29720;SDS011;23665;51.044;3.748;2022-08-27T04:06:48;18.17;;;5.03;;
29720;SDS011;23665;51.044;3.748;2022-08-27T04:09:14;11.27;;;5.53;;
29720;SDS011;23665;51.044;3.748;2022-08-27T04:11:40;14.53;;;5.80;;
29720;SDS011;23665;51.044;3.748;2022-08-27T04:14:05;11.53;;;5.63;;
29720;SDS011;23665;51.044;3.748;2022-08-27T04:16:34;12.47;;;5.67;;
29720;SDS011;23665;51.044;3.748;2022-08-27T04:19:01;12.87;;;5.93;;
29720;SDS011;23665;51.044;3.748;2022-08-27T04:21:27;10.77;;;5.40;;
29720;SDS011;23665;51.044;3.748;2022-08-27T04:23:54;12.17;;;5.43;;
29720;SDS011;23665;51.044;3.748;2022-08-27T04:26:20;11.27;;;5.43;;
29720;SDS011;23665;51.044;3.748;2022-08-27T04:28:46;11.00;;;5.00;;
29720;SDS011;23665;51.044;3.748;2022-08-27T04:31:12;13.17;;;5.40;;
29720;SDS011;23665;51.044;3.748;2022-08-27T04:33:39;10.37;;;5.63;;
29720;SDS011;23665;51.044;3.748;2022-08-27T04:36:06;12.13;;;5.93;;
29720;SDS011;23665;51.044;3.748;2022-08-27T04:38:34;12.43;;;6.27;;
29720;SDS011;23665;51.044;3.748;2022-08-27T04:41:04;16.30;;;5.60;;
29720;SDS011;23665;51.044;3.748;2022-08-27T04:43:52;10.73;;;5.37;;
29720;SDS011;23665;51.044;3.748;2022-08-27T04:46:23;11.83;;;5.63;;
29720;SDS011;23665;51.044;3.748;2022-08-27T04:48:55;15.43;;;6.20;;
29720;SDS011;23665;51.044;3.748;2022-08-27T04:51:22;15.67;;;5.77;;
29720;SDS011;23665;51.044;3.748;2022-08-27T04:53:48;12.93;;;5.67;;
29720;SDS011;23665;51.044;3.748;2022-08-27T04:56:15;11.30;;;4.90;;
29720;SDS011;23665;51.044;3.748;2022-08-27T04:58:42;9.13;;;4.57;;
29720;SDS011;23665;51.044;3.748;2022-08-27T05:01:09;9.27;;;5.00;;
29720;SDS011;23665;51.044;3.748;2022-08-27T05:03:44;9.47;;;5.80;;
29720;SDS011;23665;51.044;3.748;2022-08-27T05:06:10;12.57;;;5.40;;
29720;SDS011;23665;51.044;3.748;2022-08-27T05:08:36;11.43;;;4.97;;
29720;SDS011;23665;51.044;3.748;2022-08-27T05:11:05;12.47;;;5.30;;
29720;SDS011;23665;51.044;3.748;2022-08-27T05:13:32;10.33;;;4.90;;
29720;SDS011;23665;51.044;3.748;2022-08-27T05:15:59;12.70;;;4.83;;
29720;SDS011;23665;51.044;3.748;2022-08-27T05:18:26;16.17;;;5.10;;
29720;SDS011;23665;51.044;3.748;2022-08-27T05:20:52;12.00;;;5.43;;
29720;SDS011;23665;51.044;3.748;2022-08-27T05:23:18;9.97;;;4.40;;
29720;SDS011;23665;51.044;3.748;2022-08-27T05:25:45;12.73;;;4.63;;
29720;SDS011;23665;51.044;3.748;2022-08-27T05:28:13;10.47;;;4.70;;
29720;SDS011;23665;51.044;3.748;2022-08-27T05:30:41;10.70;;;4.47;;
29720;SDS011;23665;51.044;3.748;2022-08-27T05:33:10;10.23;;;4.17;;
29720;SDS011;23665;51.044;3.748;2022-08-27T05:35:40;7.53;;;4.30;;
29720;SDS011;23665;51.044;3.748;2022-08-27T05:38:07;8.47;;;3.93;;
29720;SDS011;23665;51.044;3.748;2022-08-27T05:40:33;10.47;;;4.60;;
29720;SDS011;23665;51.044;3.748;2022-08-27T05:42:59;10.47;;;4.47;;
29720;SDS011;23665;51.044;3.748;2022-08-27T05:45:25;12.53;;;4.40;;
29720;SDS011;23665;51.044;3.748;2022-08-27T05:47:51;11.70;;;4.40;;
29720;SDS011;23665;51.044;3.748;2022-08-27T05:50:16;11.30;;;5.57;;
29720;SDS011;23665;51.044;3.748;2022-08-27T05:52:42;11.77;;;5.50;;
29720;SDS011;23665;51.044;3.748;2022-08-27T05:55:08;13.47;;;4.57;;
29720;SDS011;23665;51.044;3.748;2022-08-27T05:57:33;9.30;;;3.80;;
29720;SDS011;23665;51.044;3.748;2022-08-27T05:59:59;14.07;;;5.23;;
29720;SDS011;23665;51.044;3.748;2022-08-27T06:02:43;11.77;;;5.13;;
29720;SDS011;23665;51.044;3.748;2022-08-27T06:05:10;9.93;;;5.23;;
29720;SDS011;23665;51.044;3.748;2022-08-27T06:07:35;11.87;;;5.73;;
29720;SDS011;23665;51.044;3.748;2022-08-27T06:10:02;16.30;;;6.30;;
29720;SDS011;23665;51.044;3.748;2022-08-27T06:12:30;11.70;;;5.27;;
29720;SDS011;23665;51.044;3.748;2022-08-27T06:14:56;11.60;;;5.87;;
29720;SDS011;23665;51.044;3.748;2022-08-27T06:17:22;12.70;;;5.40;;
29720;SDS011;23665;51.044;3.748;2022-08-27T06:19:48;13.00;;;5.90;;
29720;SDS011;23665;51.044;3.748;2022-08-27T06:22:14;17.37;;;5.17;;
29720;SDS011;23665;51.044;3.748;2022-08-27T06:24:40;11.83;;;5.90;;
29720;SDS011;23665;51.044;3.748;2022-08-27T06:27:10;11.97;;;5.73;;
29720;SDS011;23665;51.044;3.748;2022-08-27T06:29:38;14.23;;;6.00;;
29720;SDS011;23665;51.044;3.748;2022-08-27T06:32:04;7.73;;;5.13;;
29720;SDS011;23665;51.044;3.748;2022-08-27T06:34:30;14.87;;;6.43;;
29720;SDS011;23665;51.044;3.748;2022-08-27T06:36:57;15.60;;;5.70;;
29720;SDS011;23665;51.044;3.748;2022-08-27T06:39:22;15.23;;;6.07;;
29720;SDS011;23665;51.044;3.748;2022-08-27T06:41:48;10.60;;;5.43;;
29720;SDS011;23665;51.044;3.748;2022-08-27T06:44:14;9.07;;;5.00;;
29720;SDS011;23665;51.044;3.748;2022-08-27T06:46:40;16.07;;;4.60;;
29720;SDS011;23665;51.044;3.748;2022-08-27T06:49:06;11.23;;;5.10;;
29720;SDS011;23665;51.044;3.748;2022-08-27T06:51:33;16.10;;;4.67;;
29720;SDS011;23665;51.044;3.748;2022-08-27T06:54:01;18.33;;;5.33;;
29720;SDS011;23665;51.044;3.748;2022-08-27T06:56:29;12.93;;;4.83;;
29720;SDS011;23665;51.044;3.748;2022-08-27T06:58:56;21.33;;;5.73;;
29720;SDS011;23665;51.044;3.748;2022-08-27T07:01:31;20.90;;;4.30;;
29720;SDS011;23665;51.044;3.748;2022-08-27T07:04:00;12.43;;;4.07;;
29720;SDS011;23665;51.044;3.748;2022-08-27T07:06:28;14.83;;;3.00;;
29720;SDS011;23665;51.044;3.748;2022-08-27T07:08:55;12.17;;;3.43;;
29720;SDS011;23665;51.044;3.748;2022-08-27T07:11:22;8.60;;;2.90;;
29720;SDS011;23665;51.044;3.748;2022-08-27T07:13:48;9.50;;;2.27;;
29720;SDS011;23665;51.044;3.748;2022-08-27T07:16:16;8.30;;;2.53;;
29720;SDS011;23665;51.044;3.748;2022-08-27T07:18:47;8.33;;;1.93;;
29720;SDS011;23665;51.044;3.748;2022-08-27T07:21:18;9.17;;;2.00;;
29720;SDS011;23665;51.044;3.748;2022-08-27T07:23:44;9.53;;;2.07;;
29720;SDS011;23665;51.044;3.748;2022-08-27T07:26:11;9.33;;;2.10;;
29720;SDS011;23665;51.044;3.748;2022-08-27T07:28:38;8.40;;;1.90;;
29720;SDS011;23665;51.044;3.748;2022-08-27T07:31:06;9.27;;;1.87;;
29720;SDS011;23665;51.044;3.748;2022-08-27T07:33:35;9.80;;;2.33;;
29720;SDS011;23665;51.044;3.748;2022-08-27T07:36:01;8.57;;;2.73;;
29720;SDS011;23665;51.044;3.748;2022-08-27T07:38:28;6.83;;;2.63;;
29720;SDS011;23665;51.044;3.748;2022-08-27T07:40:53;7.50;;;2.90;;
29720;SDS011;23665;51.044;3.748;2022-08-27T07:43:19;10.03;;;2.73;;
29720;SDS011;23665;51.044;3.748;2022-08-27T07:46:04;12.57;;;5.17;;
29720;SDS011;23665;51.044;3.748;2022-08-27T07:48:30;17.27;;;5.73;;
29720;SDS011;23665;51.044;3.748;2022-08-27T07:50:58;12.63;;;5.00;;
29720;SDS011;23665;51.044;3.748;2022-08-27T07:53:27;16.50;;;4.77;;
29720;SDS011;23665;51.044;3.748;2022-08-27T07:55:52;12.60;;;4.77;;
29720;SDS011;23665;51.044;3.748;2022-08-27T07:58:18;14.80;;;4.80;;
29720;SDS011;23665;51.044;3.748;2022-08-27T08:00:44;12.90;;;4.73;;
29720;SDS011;23665;51.044;3.748;2022-08-27T08:03:10;15.67;;;5.30;;
29720;SDS011;23665;51.044;3.748;2022-08-27T08:05:41;11.50;;;4.50;;
29720;SDS011;23665;51.044;3.748;2022-08-27T08:08:07;17.37;;;4.87;;
29720;SDS011;23665;51.044;3.748;2022-08-27T08:10:36;18.53;;;4.70;;
29720;SDS011;23665;51.044;3.748;2022-08-27T08:13:03;14.17;;;4.07;;
29720;SDS011;23665;51.044;3.748;2022-08-27T08:15:29;12.20;;;4.10;;
29720;SDS011;23665;51.044;3.748;2022-08-27T08:17:55;11.57;;;4.00;;
29720;SDS011;23665;51.044;3.748;2022-08-27T08:20:21;14.50;;;3.70;;
29720;SDS011;23665;51.044;3.748;2022-08-27T08:22:47;13.93;;;4.70;;
29720;SDS011;23665;51.044;3.748;2022-08-27T08:25:13;10.20;;;3.90;;
29720;SDS011;23665;51.044;3.748;2022-08-27T08:27:40;15.57;;;3.90;;
29720;SDS011;23665;51.044;3.748;2022-08-27T08:30:07;8.10;;;3.90;;
29720;SDS011;23665;51.044;3.748;2022-08-27T08:32:34;10.70;;;3.73;;
29720;SDS011;23665;51.044;3.748;2022-08-27T08:34:59;9.13;;;3.50;;
29720;SDS011;23665;51.044;3.748;2022-08-27T08:37:25;11.47;;;3.17;;
29720;SDS011;23665;51.044;3.748;2022-08-27T08:39:51;12.83;;;4.20;;
29720;SDS011;23665;51.044;3.748;2022-08-27T08:42:28;8.80;;;3.40;;
29720;SDS011;23665;51.044;3.748;2022-08-27T08:45:04;10.53;;;2.87;;
29720;SDS011;23665;51.044;3.748;2022-08-27T08:53:01;11.50;;;3.67;;
29720;SDS011;23665;51.044;3.748;2022-08-27T08:55:53;7.97;;;3.10;;
29720;SDS011;23665;51.044;3.748;2022-08-27T09:01:03;7.70;;;2.33;;
29720;SDS011;23665;51.044;3.748;2022-08-27T09:03:32;10.07;;;1.97;;
29720;SDS011;23665;51.044;3.748;2022-08-27T09:06:10;4.90;;;1.83;;
29720;SDS011;23665;51.044;3.748;2022-08-27T09:08:43;15.13;;;2.47;;
29720;SDS011;23665;51.044;3.748;2022-08-27T09:13:41;11.33;;;2.60;;
29720;SDS011;23665;51.044;3.748;2022-08-27T09:16:12;12.33;;;2.60;;
29720;SDS011;23665;51.044;3.748;2022-08-27T09:18:38;5.87;;;1.80;;
29720;SDS011;23665;51.044;3.748;2022-08-27T09:24:54;9.73;;;2.30;;
29720;SDS011;23665;51.044;3.748;2022-08-27T09:26:50;9.87;;;2.67;;
29720;SDS011;23665;51.044;3.748;2022-08-27T09:29:16;9.77;;;2.90;;
29720;SDS011;23665;51.044;3.748;2022-08-27T09:31:53;6.57;;;2.47;;
29720;SDS011;23665;51.044;3.748;2022-08-27T09:34:25;10.17;;;2.30;;
29720;SDS011;23665;51.044;3.748;2022-08-27T09:39:40;8.87;;;2.20;;
29720;SDS011;23665;51.044;3.748;2022-08-27T09:42:21;11.80;;;2.93;;
29720;SDS011;23665;51.044;3.748;2022-08-27T09:44:54;8.70;;;2.30;;
29720;SDS011;23665;51.044;3.748;2022-08-27T09:47:21;7.83;;;1.90;;
29720;SDS011;23665;51.044;3.748;2022-08-27T09:49:47;7.23;;;1.40;;
29720;SDS011;23665;51.044;3.748;2022-08-27T09:52:36;10.30;;;1.87;;
29720;SDS011;23665;51.044;3.748;2022-08-27T09:55:27;11.40;;;1.40;;
29720;SDS011;23665;51.044;3.748;2022-08-27T09:58:00;8.43;;;1.47;;
29720;SDS011;23665;51.044;3.748;2022-08-27T10:00:36;5.97;;;1.20;;
29720;SDS011;23665;51.044;3.748;2022-08-27T10:03:06;3.63;;;1.00;;
29720;SDS011;23665;51.044;3.748;2022-08-27T10:05:38;5.17;;;1.50;;
29720;SDS011;23665;51.044;3.748;2022-08-27T10:08:26;5.27;;;1.63;;
29720;SDS011;23665;51.044;3.748;2022-08-27T10:10:57;4.27;;;1.60;;
29720;SDS011;23665;51.044;3.748;2022-08-27T10:24:17;11.27;;;2.10;;
29720;SDS011;23665;51.044;3.748;2022-08-27T10:26:51;6.20;;;1.80;;
29720;SDS011;23665;51.044;3.748;2022-08-27T10:29:44;9.37;;;2.53;;
29720;SDS011;23665;51.044;3.748;2022-08-27T10:35:08;5.00;;;2.10;;
29720;SDS011;23665;51.044;3.748;2022-08-27T10:40:15;4.70;;;1.77;;
29720;SDS011;23665;51.044;3.748;2022-08-27T10:45:46;7.80;;;1.87;;
29720;SDS011;23665;51.044;3.748;2022-08-27T10:48:38;6.73;;;1.80;;
29720;SDS011;23665;51.044;3.748;2022-08-27T10:52:13;8.83;;;2.00;;
29720;SDS011;23665;51.044;3.748;2022-08-27T10:56:55;7.03;;;1.90;;
29720;SDS011;23665;51.044;3.748;2022-08-27T11:05:38;6.37;;;2.63;;
29720;SDS011;23665;51.044;3.748;2022-08-27T11:11:00;6.80;;;1.63;;
29720;SDS011;23665;51.044;3.748;2022-08-27T11:16:13;9.87;;;2.40;;
29720;SDS011;23665;51.044;3.748;2022-08-27T11:24:38;5.27;;;1.73;;
29720;SDS011;23665;51.044;3.748;2022-08-27T11:27:08;6.67;;;2.00;;
29720;SDS011;23665;51.044;3.748;2022-08-27T11:29:38;5.53;;;1.77;;
29720;SDS011;23665;51.044;3.748;2022-08-27T11:35:31;4.67;;;1.93;;
29720;SDS011;23665;51.044;3.748;2022-08-27T11:43:34;6.50;;;2.00;;
29720;SDS011;23665;51.044;3.748;2022-08-27T11:46:02;7.10;;;3.13;;
29720;SDS011;23665;51.044;3.748;2022-08-27T11:48:42;5.60;;;2.10;;
29720;SDS011;23665;51.044;3.748;2022-08-27T11:51:26;7.03;;;2.17;;
29720;SDS011;23665;51.044;3.748;2022-08-27T11:53:58;5.93;;;1.67;;
29720;SDS011;23665;51.044;3.748;2022-08-27T12:02:11;5.87;;;1.63;;
29720;SDS011;23665;51.044;3.748;2022-08-27T12:04:52;5.63;;;1.60;;
29720;SDS011;23665;51.044;3.748;2022-08-27T12:07:25;7.13;;;1.40;;
29720;SDS011;23665;51.044;3.748;2022-08-27T12:14:52;6.33;;;1.50;;
29720;SDS011;23665;51.044;3.748;2022-08-27T12:20:20;7.77;;;2.00;;
29720;SDS011;23665;51.044;3.748;2022-08-27T12:23:26;7.17;;;2.07;;
29720;SDS011;23665;51.044;3.748;2022-08-27T12:26:28;7.10;;;1.70;;
29720;SDS011;23665;51.044;3.748;2022-08-27T12:29:18;7.07;;;1.60;;
29720;SDS011;23665;51.044;3.748;2022-08-27T12:37:30;13.10;;;1.37;;
29720;SDS011;23665;51.044;3.748;2022-08-27T12:40:01;2.80;;;1.00;;
29720;SDS011;23665;51.044;3.748;2022-08-27T12:42:33;3.57;;;1.40;;
29720;SDS011;23665;51.044;3.748;2022-08-27T12:44:59;6.10;;;1.40;;
29720;SDS011;23665;51.044;3.748;2022-08-27T12:47:25;4.17;;;1.13;;
29720;SDS011;23665;51.044;3.748;2022-08-27T12:49:52;5.17;;;1.20;;
29720;SDS011;23665;51.044;3.748;2022-08-27T13:05:16;7.63;;;1.63;;
29720;SDS011;23665;51.044;3.748;2022-08-27T13:07:45;6.50;;;1.40;;
29720;SDS011;23665;51.044;3.748;2022-08-27T13:12:58;3.70;;;1.10;;
29720;SDS011;23665;51.044;3.748;2022-08-27T13:15:28;5.63;;;1.30;;
29720;SDS011;23665;51.044;3.748;2022-08-27T13:17:53;6.03;;;1.40;;
29720;SDS011;23665;51.044;3.748;2022-08-27T13:20:20;7.37;;;1.70;;
29720;SDS011;23665;51.044;3.748;2022-08-27T13:22:48;4.50;;;1.47;;
29720;SDS011;23665;51.044;3.748;2022-08-27T13:27:55;6.87;;;1.47;;
29720;SDS011;23665;51.044;3.748;2022-08-27T13:30:24;10.30;;;1.97;;
29720;SDS011;23665;51.044;3.748;2022-08-27T13:32:52;4.17;;;1.20;;
29720;SDS011;23665;51.044;3.748;2022-08-27T13:35:18;3.97;;;1.57;;
29720;SDS011;23665;51.044;3.748;2022-08-27T13:37:47;4.27;;;1.43;;
29720;SDS011;23665;51.044;3.748;2022-08-27T13:40:24;4.53;;;2.03;;
29720;SDS011;23665;51.044;3.748;2022-08-27T13:43:05;4.03;;;2.17;;
29720;SDS011;23665;51.044;3.748;2022-08-27T13:45:35;7.80;;;2.63;;
29720;SDS011;23665;51.044;3.748;2022-08-27T13:48:03;5.40;;;1.93;;
29720;SDS011;23665;51.044;3.748;2022-08-27T13:50:30;4.20;;;1.90;;
29720;SDS011;23665;51.044;3.748;2022-08-27T13:53:08;6.97;;;2.00;;
29720;SDS011;23665;51.044;3.748;2022-08-27T13:55:54;3.73;;;1.47;;
29720;SDS011;23665;51.044;3.748;2022-08-27T13:58:26;5.70;;;1.57;;
29720;SDS011;23665;51.044;3.748;2022-08-27T14:00:54;4.37;;;1.83;;
29720;SDS011;23665;51.044;3.748;2022-08-27T14:03:34;6.40;;;1.83;;
29720;SDS011;23665;51.044;3.748;2022-08-27T14:06:03;7.70;;;3.30;;
29720;SDS011;23665;51.044;3.748;2022-08-27T14:08:30;7.43;;;2.23;;
29720;SDS011;23665;51.044;3.748;2022-08-27T14:11:02;5.43;;;2.20;;
29720;SDS011;23665;51.044;3.748;2022-08-27T14:13:38;6.87;;;2.27;;
29720;SDS011;23665;51.044;3.748;2022-08-27T14:16:39;5.50;;;1.40;;
29720;SDS011;23665;51.044;3.748;2022-08-27T14:21:28;8.10;;;2.40;;
29720;SDS011;23665;51.044;3.748;2022-08-27T14:23:54;5.90;;;1.93;;
29720;SDS011;23665;51.044;3.748;2022-08-27T14:26:20;5.17;;;1.53;;
29720;SDS011;23665;51.044;3.748;2022-08-27T14:28:46;10.87;;;2.17;;
29720;SDS011;23665;51.044;3.748;2022-08-27T14:31:12;10.43;;;3.10;;
29720;SDS011;23665;51.044;3.748;2022-08-27T14:33:39;6.73;;;2.93;;
29720;SDS011;23665;51.044;3.748;2022-08-27T14:36:05;9.67;;;3.67;;
29720;SDS011;23665;51.044;3.748;2022-08-27T14:38:31;10.33;;;4.10;;
29720;SDS011;23665;51.044;3.748;2022-08-27T14:40:58;12.40;;;3.70;;
29720;SDS011;23665;51.044;3.748;2022-08-27T14:43:24;9.23;;;2.87;;
29720;SDS011;23665;51.044;3.748;2022-08-27T14:45:50;6.73;;;2.83;;
29720;SDS011;23665;51.044;3.748;2022-08-27T14:48:19;5.67;;;2.10;;
29720;SDS011;23665;51.044;3.748;2022-08-27T14:50:47;12.53;;;2.40;;
29720;SDS011;23665;51.044;3.748;2022-08-27T14:53:13;7.60;;;2.47;;
29720;SDS011;23665;51.044;3.748;2022-08-27T14:55:39;6.43;;;2.43;;
29720;SDS011;23665;51.044;3.748;2022-08-27T14:58:05;7.53;;;2.40;;
29720;SDS011;23665;51.044;3.748;2022-08-27T15:00:32;8.27;;;2.20;;
29720;SDS011;23665;51.044;3.748;2022-08-27T15:02:57;6.20;;;2.03;;
29720;SDS011;23665;51.044;3.748;2022-08-27T15:05:23;6.90;;;1.90;;
29720;SDS011;23665;51.044;3.748;2022-08-27T15:07:50;5.10;;;2.00;;
29720;SDS011;23665;51.044;3.748;2022-08-27T15:10:18;11.13;;;2.63;;
29720;SDS011;23665;51.044;3.748;2022-08-27T15:12:44;5.50;;;1.90;;
29720;SDS011;23665;51.044;3.748;2022-08-27T15:15:10;9.30;;;1.77;;
29720;SDS011;23665;51.044;3.748;2022-08-27T15:17:38;7.37;;;2.30;;
29720;SDS011;23665;51.044;3.748;2022-08-27T15:20:05;7.50;;;2.00;;
29720;SDS011;23665;51.044;3.748;2022-08-27T15:22:34;4.57;;;1.53;;
29720;SDS011;23665;51.044;3.748;2022-08-27T15:25:01;3.30;;;1.20;;
29720;SDS011;23665;51.044;3.748;2022-08-27T15:27:29;6.10;;;1.63;;
29720;SDS011;23665;51.044;3.748;2022-08-27T15:29:56;4.03;;;1.50;;
29720;SDS011;23665;51.044;3.748;2022-08-27T15:34:58;3.53;;;1.17;;
29720;SDS011;23665;51.044;3.748;2022-08-27T15:37:25;6.53;;;1.63;;
29720;SDS011;23665;51.044;3.748;2022-08-27T15:39:51;5.90;;;1.70;;
29720;SDS011;23665;51.044;3.748;2022-08-27T15:42:17;6.63;;;1.63;;
29720;SDS011;23665;51.044;3.748;2022-08-27T15:44:47;4.43;;;1.73;;
29720;SDS011;23665;51.044;3.748;2022-08-27T15:47:19;4.17;;;1.40;;
29720;SDS011;23665;51.044;3.748;2022-08-27T15:49:45;7.27;;;1.27;;
29720;SDS011;23665;51.044;3.748;2022-08-27T15:52:11;6.47;;;1.20;;
29720;SDS011;23665;51.044;3.748;2022-08-27T15:54:40;3.30;;;1.40;;
29720;SDS011;23665;51.044;3.748;2022-08-27T15:57:06;6.07;;;1.50;;
29720;SDS011;23665;51.044;3.748;2022-08-27T15:59:32;4.73;;;1.67;;
29720;SDS011;23665;51.044;3.748;2022-08-27T16:01:59;5.53;;;2.30;;
29720;SDS011;23665;51.044;3.748;2022-08-27T16:04:25;4.40;;;1.80;;
29720;SDS011;23665;51.044;3.748;2022-08-27T16:06:51;3.70;;;1.40;;
29720;SDS011;23665;51.044;3.748;2022-08-27T16:09:18;6.50;;;1.40;;
29720;SDS011;23665;51.044;3.748;2022-08-27T16:11:43;4.70;;;1.43;;
29720;SDS011;23665;51.044;3.748;2022-08-27T16:14:10;8.57;;;1.73;;
29720;SDS011;23665;51.044;3.748;2022-08-27T16:16:39;5.20;;;1.27;;
29720;SDS011;23665;51.044;3.748;2022-08-27T16:19:08;4.90;;;1.23;;
29720;SDS011;23665;51.044;3.748;2022-08-27T16:21:34;7.93;;;1.17;;
29720;SDS011;23665;51.044;3.748;2022-08-27T16:24:00;5.00;;;1.50;;
29720;SDS011;23665;51.044;3.748;2022-08-27T16:26:27;6.90;;;1.40;;
29720;SDS011;23665;51.044;3.748;2022-08-27T16:28:56;4.87;;;1.40;;
29720;SDS011;23665;51.044;3.748;2022-08-27T16:31:22;3.47;;;1.37;;
29720;SDS011;23665;51.044;3.748;2022-08-27T16:33:48;7.13;;;1.30;;
29720;SDS011;23665;51.044;3.748;2022-08-27T16:36:14;6.13;;;1.87;;
29720;SDS011;23665;51.044;3.748;2022-08-27T16:38:39;9.60;;;1.97;;
29720;SDS011;23665;51.044;3.748;2022-08-27T16:41:09;3.73;;;0.70;;